sensor_id;sensor_type;location;lat;lon;timestamp;P1;durP1;ratioP1;P2;durP2;ratioP2
7336;SDS011;54510;42.016;23.098;2023-09-19T00:01:07;11.07;;;6.70;;
7336;SDS011;54510;42.016;23.098;2023-09-19T00:03:33;9.90;;;6.18;;
7336;SDS011;54510;42.016;23.098;2023-09-19T00:06:00;9.60;;;5.75;;
7336;SDS011;54510;42.016;23.098;2023-09-19T00:08:26;11.60;;;6.50;;
7336;SDS011;54510;42.016;23.098;2023-09-19T00:10:52;10.25;;;6.00;;
7336;SDS011;54510;42.016;23.098;2023-09-19T00:13:19;13.32;;;6.03;;
7336;SDS011;54510;42.016;23.098;2023-09-19T00:15:46;8.18;;;5.75;;
7336;SDS011;54510;42.016;23.098;2023-09-19T00:18:15;8.80;;;6.57;;
7336;SDS011;54510;42.016;23.098;2023-09-19T00:20:43;8.57;;;6.40;;
7336;SDS011;54510;42.016;23.098;2023-09-19T00:23:16;9.00;;;6.88;;
7336;SDS011;54510;42.016;23.098;2023-09-19T00:25:42;7.82;;;6.22;;
7336;SDS011;54510;42.016;23.098;2023-09-19T00:28:07;11.38;;;7.32;;
7336;SDS011;54510;42.016;23.098;2023-09-19T00:30:33;8.93;;;6.50;;
7336;SDS011;54510;42.016;23.098;2023-09-19T00:33:00;8.07;;;6.20;;
7336;SDS011;54510;42.016;23.098;2023-09-19T00:35:26;10.73;;;7.13;;
7336;SDS011;54510;42.016;23.098;2023-09-19T00:37:52;7.78;;;5.65;;
7336;SDS011;54510;42.016;23.098;2023-09-19T00:40:18;8.45;;;6.30;;
7336;SDS011;54510;42.016;23.098;2023-09-19T00:42:47;7.55;;;6.43;;
7336;SDS011;54510;42.016;23.098;2023-09-19T00:45:14;12.65;;;7.88;;
7336;SDS011;54510;42.016;23.098;2023-09-19T00:47:45;12.25;;;7.53;;
7336;SDS011;54510;42.016;23.098;2023-09-19T00:50:19;12.18;;;8.93;;
7336;SDS011;54510;42.016;23.098;2023-09-19T00:52:50;11.02;;;8.57;;
7336;SDS011;54510;42.016;23.098;2023-09-19T00:55:21;12.13;;;8.60;;
7336;SDS011;54510;42.016;23.098;2023-09-19T00:57:46;11.20;;;7.95;;
7336;SDS011;54510;42.016;23.098;2023-09-19T01:00:15;12.48;;;8.70;;
7336;SDS011;54510;42.016;23.098;2023-09-19T01:02:41;12.57;;;8.95;;
7336;SDS011;54510;42.016;23.098;2023-09-19T01:05:10;13.45;;;9.85;;
7336;SDS011;54510;42.016;23.098;2023-09-19T01:07:37;14.23;;;9.25;;
7336;SDS011;54510;42.016;23.098;2023-09-19T01:10:06;12.40;;;7.97;;
7336;SDS011;54510;42.016;23.098;2023-09-19T01:15:53;13.00;;;6.85;;
7336;SDS011;54510;42.016;23.098;2023-09-19T01:17:59;12.68;;;7.05;;
7336;SDS011;54510;42.016;23.098;2023-09-19T01:23:24;12.07;;;7.53;;
7336;SDS011;54510;42.016;23.098;2023-09-19T01:29:23;8.23;;;5.75;;
7336;SDS011;54510;42.016;23.098;2023-09-19T01:32:04;8.23;;;5.97;;
7336;SDS011;54510;42.016;23.098;2023-09-19T01:37:24;9.02;;;6.35;;
7336;SDS011;54510;42.016;23.098;2023-09-19T01:39:57;10.15;;;5.95;;
7336;SDS011;54510;42.016;23.098;2023-09-19T01:51:00;10.80;;;6.63;;
7336;SDS011;54510;42.016;23.098;2023-09-19T01:53:55;14.07;;;7.07;;
7336;SDS011;54510;42.016;23.098;2023-09-19T01:56:46;9.32;;;7.68;;
7336;SDS011;54510;42.016;23.098;2023-09-19T01:59:21;10.20;;;7.45;;
7336;SDS011;54510;42.016;23.098;2023-09-19T02:01:52;11.25;;;7.10;;
7336;SDS011;54510;42.016;23.098;2023-09-19T02:04:19;10.85;;;7.22;;
7336;SDS011;54510;42.016;23.098;2023-09-19T02:06:45;7.88;;;6.00;;
7336;SDS011;54510;42.016;23.098;2023-09-19T02:09:12;7.93;;;6.60;;
7336;SDS011;54510;42.016;23.098;2023-09-19T02:11:39;8.88;;;5.88;;
7336;SDS011;54510;42.016;23.098;2023-09-19T02:14:06;8.93;;;6.75;;
7336;SDS011;54510;42.016;23.098;2023-09-19T02:16:33;9.43;;;6.57;;
7336;SDS011;54510;42.016;23.098;2023-09-19T02:18:59;9.07;;;6.10;;
7336;SDS011;54510;42.016;23.098;2023-09-19T02:21:25;9.30;;;6.43;;
7336;SDS011;54510;42.016;23.098;2023-09-19T02:23:54;9.05;;;6.25;;
7336;SDS011;54510;42.016;23.098;2023-09-19T02:26:20;9.60;;;6.75;;
7336;SDS011;54510;42.016;23.098;2023-09-19T02:28:45;11.02;;;6.60;;
7336;SDS011;54510;42.016;23.098;2023-09-19T02:31:11;10.32;;;6.35;;
7336;SDS011;54510;42.016;23.098;2023-09-19T02:33:36;9.93;;;6.60;;
7336;SDS011;54510;42.016;23.098;2023-09-19T02:36:02;7.80;;;6.40;;
7336;SDS011;54510;42.016;23.098;2023-09-19T02:38:31;10.98;;;7.38;;
7336;SDS011;54510;42.016;23.098;2023-09-19T02:40:56;8.10;;;6.60;;
7336;SDS011;54510;42.016;23.098;2023-09-19T02:43:22;11.27;;;7.47;;
7336;SDS011;54510;42.016;23.098;2023-09-19T02:45:48;9.13;;;5.93;;
7336;SDS011;54510;42.016;23.098;2023-09-19T02:48:15;8.82;;;5.90;;
7336;SDS011;54510;42.016;23.098;2023-09-19T02:50:41;8.45;;;6.65;;
7336;SDS011;54510;42.016;23.098;2023-09-19T02:53:07;12.15;;;6.70;;
7336;SDS011;54510;42.016;23.098;2023-09-19T02:55:32;11.05;;;6.57;;
7336;SDS011;54510;42.016;23.098;2023-09-19T02:57:57;9.90;;;7.38;;
7336;SDS011;54510;42.016;23.098;2023-09-19T03:00:23;13.93;;;9.10;;
7336;SDS011;54510;42.016;23.098;2023-09-19T03:02:55;15.07;;;8.13;;
7336;SDS011;54510;42.016;23.098;2023-09-19T03:05:21;12.65;;;8.93;;
7336;SDS011;54510;42.016;23.098;2023-09-19T03:07:48;13.05;;;9.25;;
7336;SDS011;54510;42.016;23.098;2023-09-19T03:10:18;20.77;;;9.35;;
7336;SDS011;54510;42.016;23.098;2023-09-19T03:12:44;12.15;;;8.82;;
7336;SDS011;54510;42.016;23.098;2023-09-19T03:15:09;14.13;;;8.50;;
7336;SDS011;54510;42.016;23.098;2023-09-19T03:17:35;12.13;;;8.55;;
7336;SDS011;54510;42.016;23.098;2023-09-19T03:20:02;10.88;;;8.82;;
7336;SDS011;54510;42.016;23.098;2023-09-19T03:22:29;15.02;;;8.77;;
7336;SDS011;54510;42.016;23.098;2023-09-19T03:24:55;14.38;;;9.10;;
7336;SDS011;54510;42.016;23.098;2023-09-19T03:27:20;10.30;;;8.02;;
7336;SDS011;54510;42.016;23.098;2023-09-19T03:29:46;11.05;;;9.35;;
7336;SDS011;54510;42.016;23.098;2023-09-19T03:32:14;15.75;;;9.23;;
7336;SDS011;54510;42.016;23.098;2023-09-19T03:34:40;11.32;;;8.32;;
7336;SDS011;54510;42.016;23.098;2023-09-19T03:37:08;14.07;;;8.48;;
7336;SDS011;54510;42.016;23.098;2023-09-19T03:39:36;14.75;;;9.02;;
7336;SDS011;54510;42.016;23.098;2023-09-19T03:42:02;19.23;;;9.85;;
7336;SDS011;54510;42.016;23.098;2023-09-19T03:44:32;16.63;;;9.95;;
7336;SDS011;54510;42.016;23.098;2023-09-19T03:46:57;14.93;;;9.40;;
7336;SDS011;54510;42.016;23.098;2023-09-19T03:49:22;11.80;;;9.15;;
7336;SDS011;54510;42.016;23.098;2023-09-19T03:51:48;10.38;;;8.77;;
7336;SDS011;54510;42.016;23.098;2023-09-19T03:54:13;14.60;;;8.70;;
7336;SDS011;54510;42.016;23.098;2023-09-19T03:56:39;18.98;;;10.05;;
7336;SDS011;54510;42.016;23.098;2023-09-19T03:59:04;13.93;;;9.73;;
7336;SDS011;54510;42.016;23.098;2023-09-19T04:01:30;11.80;;;8.57;;
7336;SDS011;54510;42.016;23.098;2023-09-19T04:03:58;12.95;;;8.85;;
7336;SDS011;54510;42.016;23.098;2023-09-19T04:06:23;15.40;;;9.25;;
7336;SDS011;54510;42.016;23.098;2023-09-19T04:08:48;13.93;;;8.98;;
7336;SDS011;54510;42.016;23.098;2023-09-19T04:11:14;11.77;;;8.80;;
7336;SDS011;54510;42.016;23.098;2023-09-19T04:13:39;11.65;;;8.55;;
7336;SDS011;54510;42.016;23.098;2023-09-19T04:16:05;11.52;;;9.05;;
7336;SDS011;54510;42.016;23.098;2023-09-19T04:18:32;9.23;;;7.13;;
7336;SDS011;54510;42.016;23.098;2023-09-19T04:20:58;8.73;;;6.85;;
7336;SDS011;54510;42.016;23.098;2023-09-19T04:23:27;10.50;;;7.60;;
7336;SDS011;54510;42.016;23.098;2023-09-19T04:25:53;9.73;;;7.20;;
7336;SDS011;54510;42.016;23.098;2023-09-19T04:28:18;11.50;;;6.97;;
7336;SDS011;54510;42.016;23.098;2023-09-19T04:30:44;10.85;;;7.38;;
7336;SDS011;54510;42.016;23.098;2023-09-19T04:33:09;8.70;;;6.07;;
7336;SDS011;54510;42.016;23.098;2023-09-19T04:35:35;9.52;;;7.47;;
7336;SDS011;54510;42.016;23.098;2023-09-19T04:38:00;9.93;;;7.20;;
7336;SDS011;54510;42.016;23.098;2023-09-19T04:40:26;11.07;;;7.22;;
7336;SDS011;54510;42.016;23.098;2023-09-19T04:42:55;10.98;;;7.00;;
7336;SDS011;54510;42.016;23.098;2023-09-19T04:45:24;17.20;;;8.05;;
7336;SDS011;54510;42.016;23.098;2023-09-19T04:47:51;13.02;;;7.50;;
7336;SDS011;54510;42.016;23.098;2023-09-19T04:50:17;9.32;;;6.88;;
7336;SDS011;54510;42.016;23.098;2023-09-19T04:52:43;8.73;;;6.85;;
7336;SDS011;54510;42.016;23.098;2023-09-19T04:55:13;9.13;;;6.82;;
7336;SDS011;54510;42.016;23.098;2023-09-19T04:57:45;9.25;;;7.35;;
7336;SDS011;54510;42.016;23.098;2023-09-19T05:00:12;13.95;;;8.27;;
7336;SDS011;54510;42.016;23.098;2023-09-19T05:02:39;10.73;;;6.97;;
7336;SDS011;54510;42.016;23.098;2023-09-19T05:05:06;8.93;;;7.05;;
7336;SDS011;54510;42.016;23.098;2023-09-19T05:07:33;13.23;;;7.78;;
7336;SDS011;54510;42.016;23.098;2023-09-19T05:09:59;10.23;;;8.20;;
7336;SDS011;54510;42.016;23.098;2023-09-19T05:12:26;15.32;;;9.75;;
7336;SDS011;54510;42.016;23.098;2023-09-19T05:14:52;19.55;;;10.18;;
7336;SDS011;54510;42.016;23.098;2023-09-19T05:17:17;17.30;;;9.45;;
7336;SDS011;54510;42.016;23.098;2023-09-19T05:19:43;16.27;;;9.45;;
7336;SDS011;54510;42.016;23.098;2023-09-19T05:22:08;13.98;;;9.40;;
7336;SDS011;54510;42.016;23.098;2023-09-19T05:24:34;17.33;;;9.23;;
7336;SDS011;54510;42.016;23.098;2023-09-19T05:26:59;15.57;;;10.02;;
7336;SDS011;54510;42.016;23.098;2023-09-19T05:29:25;22.33;;;11.23;;
7336;SDS011;54510;42.016;23.098;2023-09-19T05:31:51;14.40;;;10.90;;
7336;SDS011;54510;42.016;23.098;2023-09-19T05:34:18;14.48;;;9.65;;
7336;SDS011;54510;42.016;23.098;2023-09-19T05:36:44;17.60;;;10.35;;
7336;SDS011;54510;42.016;23.098;2023-09-19T05:39:10;19.08;;;10.43;;
7336;SDS011;54510;42.016;23.098;2023-09-19T05:41:35;16.55;;;9.43;;
7336;SDS011;54510;42.016;23.098;2023-09-19T05:44:02;13.82;;;9.90;;
7336;SDS011;54510;42.016;23.098;2023-09-19T05:46:28;16.67;;;9.68;;
7336;SDS011;54510;42.016;23.098;2023-09-19T05:48:55;13.68;;;9.82;;
7336;SDS011;54510;42.016;23.098;2023-09-19T05:51:21;14.20;;;9.57;;
7336;SDS011;54510;42.016;23.098;2023-09-19T05:53:47;15.00;;;9.85;;
7336;SDS011;54510;42.016;23.098;2023-09-19T05:56:13;14.88;;;8.35;;
7336;SDS011;54510;42.016;23.098;2023-09-19T05:58:40;15.60;;;9.65;;
7336;SDS011;54510;42.016;23.098;2023-09-19T06:01:08;16.98;;;9.45;;
7336;SDS011;54510;42.016;23.098;2023-09-19T06:03:34;13.80;;;9.32;;
7336;SDS011;54510;42.016;23.098;2023-09-19T06:06:00;11.23;;;9.27;;
7336;SDS011;54510;42.016;23.098;2023-09-19T06:08:26;13.30;;;8.00;;
7336;SDS011;54510;42.016;23.098;2023-09-19T06:10:53;13.38;;;8.63;;
7336;SDS011;54510;42.016;23.098;2023-09-19T06:13:19;15.25;;;8.80;;
7336;SDS011;54510;42.016;23.098;2023-09-19T06:15:45;10.60;;;8.98;;
7336;SDS011;54510;42.016;23.098;2023-09-19T06:18:12;16.98;;;9.07;;
7336;SDS011;54510;42.016;23.098;2023-09-19T06:20:45;21.50;;;9.57;;
7336;SDS011;54510;42.016;23.098;2023-09-19T06:23:16;16.45;;;9.45;;
7336;SDS011;54510;42.016;23.098;2023-09-19T06:25:42;16.00;;;9.18;;
7336;SDS011;54510;42.016;23.098;2023-09-19T06:28:08;15.00;;;9.10;;
7336;SDS011;54510;42.016;23.098;2023-09-19T06:30:38;17.60;;;8.70;;
7336;SDS011;54510;42.016;23.098;2023-09-19T06:33:07;11.88;;;7.88;;
7336;SDS011;54510;42.016;23.098;2023-09-19T06:35:33;15.60;;;7.68;;
7336;SDS011;54510;42.016;23.098;2023-09-19T06:37:59;11.60;;;9.00;;
7336;SDS011;54510;42.016;23.098;2023-09-19T06:40:28;11.63;;;7.38;;
7336;SDS011;54510;42.016;23.098;2023-09-19T06:42:53;15.43;;;8.00;;
7336;SDS011;54510;42.016;23.098;2023-09-19T06:45:19;11.75;;;8.93;;
7336;SDS011;54510;42.016;23.098;2023-09-19T06:47:46;14.32;;;9.57;;
7336;SDS011;54510;42.016;23.098;2023-09-19T06:50:19;14.73;;;8.25;;
7336;SDS011;54510;42.016;23.098;2023-09-19T06:52:47;12.02;;;7.72;;
7336;SDS011;54510;42.016;23.098;2023-09-19T06:55:15;9.70;;;7.05;;
7336;SDS011;54510;42.016;23.098;2023-09-19T06:57:44;12.43;;;7.97;;
7336;SDS011;54510;42.016;23.098;2023-09-19T07:00:10;15.48;;;9.30;;
7336;SDS011;54510;42.016;23.098;2023-09-19T07:03:06;10.18;;;6.65;;
7336;SDS011;54510;42.016;23.098;2023-09-19T07:05:38;9.95;;;6.88;;
7336;SDS011;54510;42.016;23.098;2023-09-19T07:08:04;9.40;;;6.38;;
7336;SDS011;54510;42.016;23.098;2023-09-19T07:10:31;14.13;;;7.97;;
7336;SDS011;54510;42.016;23.098;2023-09-19T07:13:01;17.55;;;11.50;;
7336;SDS011;54510;42.016;23.098;2023-09-19T07:15:31;17.33;;;8.02;;
7336;SDS011;54510;42.016;23.098;2023-09-19T07:18:00;14.57;;;7.63;;
7336;SDS011;54510;42.016;23.098;2023-09-19T07:20:26;12.48;;;7.60;;
7336;SDS011;54510;42.016;23.098;2023-09-19T07:22:53;15.77;;;8.23;;
7336;SDS011;54510;42.016;23.098;2023-09-19T07:25:20;20.25;;;9.95;;
7336;SDS011;54510;42.016;23.098;2023-09-19T07:27:46;10.95;;;7.38;;
7336;SDS011;54510;42.016;23.098;2023-09-19T07:30:12;15.38;;;8.70;;
7336;SDS011;54510;42.016;23.098;2023-09-19T07:32:38;13.90;;;7.25;;
7336;SDS011;54510;42.016;23.098;2023-09-19T07:35:04;14.57;;;9.77;;
7336;SDS011;54510;42.016;23.098;2023-09-19T07:37:30;11.40;;;7.03;;
7336;SDS011;54510;42.016;23.098;2023-09-19T07:39:58;11.82;;;7.05;;
7336;SDS011;54510;42.016;23.098;2023-09-19T07:42:24;17.80;;;7.57;;
7336;SDS011;54510;42.016;23.098;2023-09-19T07:44:50;11.70;;;7.90;;
7336;SDS011;54510;42.016;23.098;2023-09-19T07:47:16;11.80;;;7.05;;
7336;SDS011;54510;42.016;23.098;2023-09-19T07:49:42;17.30;;;9.77;;
7336;SDS011;54510;42.016;23.098;2023-09-19T07:52:08;13.52;;;7.38;;
7336;SDS011;54510;42.016;23.098;2023-09-19T07:54:34;9.13;;;6.35;;
7336;SDS011;54510;42.016;23.098;2023-09-19T07:57:00;11.27;;;6.80;;
7336;SDS011;54510;42.016;23.098;2023-09-19T07:59:26;16.90;;;10.77;;
7336;SDS011;54510;42.016;23.098;2023-09-19T08:01:52;17.30;;;7.40;;
7336;SDS011;54510;42.016;23.098;2023-09-19T08:04:18;9.88;;;6.57;;
7336;SDS011;54510;42.016;23.098;2023-09-19T08:06:44;10.52;;;6.65;;
7336;SDS011;54510;42.016;23.098;2023-09-19T08:09:10;9.60;;;6.15;;
7336;SDS011;54510;42.016;23.098;2023-09-19T08:11:36;10.48;;;6.85;;
7336;SDS011;54510;42.016;23.098;2023-09-19T08:14:02;8.77;;;6.03;;
7336;SDS011;54510;42.016;23.098;2023-09-19T08:16:27;9.15;;;6.10;;
7336;SDS011;54510;42.016;23.098;2023-09-19T08:18:53;9.15;;;6.45;;
7336;SDS011;54510;42.016;23.098;2023-09-19T08:21:21;10.57;;;6.68;;
7336;SDS011;54510;42.016;23.098;2023-09-19T08:23:48;13.00;;;8.13;;
7336;SDS011;54510;42.016;23.098;2023-09-19T08:26:14;9.38;;;6.88;;
7336;SDS011;54510;42.016;23.098;2023-09-19T08:28:39;10.20;;;6.93;;
7336;SDS011;54510;42.016;23.098;2023-09-19T08:31:08;9.35;;;6.25;;
7336;SDS011;54510;42.016;23.098;2023-09-19T08:33:34;9.45;;;6.13;;
7336;SDS011;54510;42.016;23.098;2023-09-19T08:36:01;12.90;;;6.53;;
7336;SDS011;54510;42.016;23.098;2023-09-19T08:38:30;14.38;;;7.75;;
7336;SDS011;54510;42.016;23.098;2023-09-19T08:40:58;12.02;;;6.97;;
7336;SDS011;54510;42.016;23.098;2023-09-19T08:43:27;9.23;;;6.35;;
7336;SDS011;54510;42.016;23.098;2023-09-19T08:45:54;15.18;;;9.52;;
7336;SDS011;54510;42.016;23.098;2023-09-19T08:48:28;10.40;;;7.18;;
7336;SDS011;54510;42.016;23.098;2023-09-19T08:53:41;12.82;;;7.05;;
7336;SDS011;54510;42.016;23.098;2023-09-19T08:56:16;10.50;;;6.80;;
7336;SDS011;54510;42.016;23.098;2023-09-19T08:58:44;10.82;;;7.22;;
7336;SDS011;54510;42.016;23.098;2023-09-19T09:01:14;9.60;;;6.35;;
7336;SDS011;54510;42.016;23.098;2023-09-19T09:03:41;7.05;;;6.05;;
7336;SDS011;54510;42.016;23.098;2023-09-19T09:06:11;8.80;;;6.35;;
7336;SDS011;54510;42.016;23.098;2023-09-19T09:08:40;7.95;;;6.07;;
7336;SDS011;54510;42.016;23.098;2023-09-19T09:11:06;10.10;;;6.78;;
7336;SDS011;54510;42.016;23.098;2023-09-19T09:13:34;13.43;;;7.20;;
7336;SDS011;54510;42.016;23.098;2023-09-19T09:16:01;9.75;;;5.78;;
7336;SDS011;54510;42.016;23.098;2023-09-19T09:18:28;6.93;;;5.75;;
7336;SDS011;54510;42.016;23.098;2023-09-19T09:20:55;11.90;;;7.20;;
7336;SDS011;54510;42.016;23.098;2023-09-19T09:23:21;8.85;;;5.68;;
7336;SDS011;54510;42.016;23.098;2023-09-19T09:25:47;8.68;;;6.95;;
7336;SDS011;54510;42.016;23.098;2023-09-19T09:28:22;7.85;;;5.53;;
7336;SDS011;54510;42.016;23.098;2023-09-19T09:30:50;10.05;;;5.97;;
7336;SDS011;54510;42.016;23.098;2023-09-19T09:33:16;9.95;;;6.45;;
7336;SDS011;54510;42.016;23.098;2023-09-19T09:35:58;6.68;;;5.40;;
7336;SDS011;54510;42.016;23.098;2023-09-19T09:38:42;8.05;;;5.75;;
7336;SDS011;54510;42.016;23.098;2023-09-19T09:41:10;9.65;;;6.50;;
7336;SDS011;54510;42.016;23.098;2023-09-19T09:43:40;9.18;;;6.28;;
7336;SDS011;54510;42.016;23.098;2023-09-19T09:46:17;10.52;;;6.63;;
7336;SDS011;54510;42.016;23.098;2023-09-19T09:48:44;12.57;;;6.65;;
7336;SDS011;54510;42.016;23.098;2023-09-19T09:51:30;7.72;;;5.72;;
7336;SDS011;54510;42.016;23.098;2023-09-19T09:54:09;12.93;;;9.82;;
7336;SDS011;54510;42.016;23.098;2023-09-19T09:59:18;9.73;;;7.28;;
7336;SDS011;54510;42.016;23.098;2023-09-19T10:01:47;20.55;;;13.02;;
7336;SDS011;54510;42.016;23.098;2023-09-19T10:04:27;10.32;;;6.75;;
7336;SDS011;54510;42.016;23.098;2023-09-19T10:06:56;15.25;;;9.38;;
7336;SDS011;54510;42.016;23.098;2023-09-19T10:09:22;11.52;;;6.97;;
7336;SDS011;54510;42.016;23.098;2023-09-19T10:12:07;17.92;;;11.90;;
7336;SDS011;54510;42.016;23.098;2023-09-19T10:14:37;10.88;;;8.70;;
7336;SDS011;54510;42.016;23.098;2023-09-19T10:17:05;9.55;;;7.70;;
7336;SDS011;54510;42.016;23.098;2023-09-19T10:19:37;9.05;;;6.32;;
7336;SDS011;54510;42.016;23.098;2023-09-19T10:22:10;12.55;;;6.32;;
7336;SDS011;54510;42.016;23.098;2023-09-19T10:24:37;9.02;;;6.18;;
7336;SDS011;54510;42.016;23.098;2023-09-19T10:27:06;12.32;;;9.52;;
7336;SDS011;54510;42.016;23.098;2023-09-19T10:29:34;11.93;;;6.85;;
7336;SDS011;54510;42.016;23.098;2023-09-19T10:32:04;9.77;;;5.70;;
7336;SDS011;54510;42.016;23.098;2023-09-19T10:34:35;12.23;;;6.85;;
7336;SDS011;54510;42.016;23.098;2023-09-19T10:37:01;7.65;;;5.90;;
7336;SDS011;54510;42.016;23.098;2023-09-19T10:39:34;14.75;;;10.35;;
7336;SDS011;54510;42.016;23.098;2023-09-19T10:42:03;13.35;;;7.60;;
7336;SDS011;54510;42.016;23.098;2023-09-19T10:44:34;7.38;;;6.00;;
7336;SDS011;54510;42.016;23.098;2023-09-19T10:47:09;15.10;;;9.23;;
7336;SDS011;54510;42.016;23.098;2023-09-19T10:49:35;11.88;;;6.85;;
7336;SDS011;54510;42.016;23.098;2023-09-19T10:52:08;8.93;;;5.45;;
7336;SDS011;54510;42.016;23.098;2023-09-19T10:54:38;8.82;;;5.53;;
7336;SDS011;54510;42.016;23.098;2023-09-19T10:57:07;7.32;;;4.90;;
7336;SDS011;54510;42.016;23.098;2023-09-19T10:59:34;9.90;;;5.72;;
7336;SDS011;54510;42.016;23.098;2023-09-19T11:02:00;6.57;;;5.00;;
7336;SDS011;54510;42.016;23.098;2023-09-19T11:04:42;9.85;;;6.45;;
7336;SDS011;54510;42.016;23.098;2023-09-19T11:07:11;10.20;;;6.97;;
7336;SDS011;54510;42.016;23.098;2023-09-19T11:09:55;11.10;;;5.85;;
7336;SDS011;54510;42.016;23.098;2023-09-19T11:15:00;7.50;;;5.10;;
7336;SDS011;54510;42.016;23.098;2023-09-19T11:36:11;10.07;;;6.15;;
7336;SDS011;54510;42.016;23.098;2023-09-19T11:43:50;7.78;;;4.88;;
7336;SDS011;54510;42.016;23.098;2023-09-19T11:46:35;7.65;;;4.55;;
7336;SDS011;54510;42.016;23.098;2023-09-19T11:49:16;8.02;;;5.90;;
7336;SDS011;54510;42.016;23.098;2023-09-19T11:51:48;11.57;;;8.60;;
7336;SDS011;54510;42.016;23.098;2023-09-19T11:54:16;8.93;;;6.38;;
7336;SDS011;54510;42.016;23.098;2023-09-19T11:56:53;7.43;;;5.30;;
7336;SDS011;54510;42.016;23.098;2023-09-19T11:59:20;6.63;;;4.55;;
7336;SDS011;54510;42.016;23.098;2023-09-19T12:01:56;7.55;;;4.80;;
7336;SDS011;54510;42.016;23.098;2023-09-19T12:04:44;8.27;;;4.35;;
7336;SDS011;54510;42.016;23.098;2023-09-19T12:09:42;5.47;;;4.50;;
7336;SDS011;54510;42.016;23.098;2023-09-19T12:12:11;7.93;;;6.00;;
7336;SDS011;54510;42.016;23.098;2023-09-19T12:14:47;5.82;;;4.45;;
7336;SDS011;54510;42.016;23.098;2023-09-19T12:17:14;9.15;;;5.20;;
7336;SDS011;54510;42.016;23.098;2023-09-19T12:19:40;8.00;;;5.10;;
7336;SDS011;54510;42.016;23.098;2023-09-19T12:22:15;6.20;;;5.05;;
7336;SDS011;54510;42.016;23.098;2023-09-19T12:24:41;7.45;;;4.80;;
7336;SDS011;54510;42.016;23.098;2023-09-19T12:27:09;6.75;;;5.10;;
7336;SDS011;54510;42.016;23.098;2023-09-19T12:29:48;7.50;;;5.55;;
7336;SDS011;54510;42.016;23.098;2023-09-19T12:32:14;6.18;;;4.57;;
7336;SDS011;54510;42.016;23.098;2023-09-19T12:34:52;7.22;;;4.57;;
7336;SDS011;54510;42.016;23.098;2023-09-19T12:37:19;7.55;;;4.45;;
7336;SDS011;54510;42.016;23.098;2023-09-19T12:40:03;6.57;;;4.53;;
7336;SDS011;54510;42.016;23.098;2023-09-19T12:42:40;7.00;;;4.90;;
7336;SDS011;54510;42.016;23.098;2023-09-19T12:45:06;10.35;;;5.22;;
7336;SDS011;54510;42.016;23.098;2023-09-19T12:47:34;6.22;;;4.78;;
7336;SDS011;54510;42.016;23.098;2023-09-19T12:50:13;8.15;;;5.03;;
7336;SDS011;54510;42.016;23.098;2023-09-19T12:52:51;9.52;;;5.78;;
7336;SDS011;54510;42.016;23.098;2023-09-19T13:00:35;6.20;;;4.22;;
7336;SDS011;54510;42.016;23.098;2023-09-19T13:03:10;8.68;;;4.47;;
7336;SDS011;54510;42.016;23.098;2023-09-19T13:05:50;7.43;;;4.60;;
7336;SDS011;54510;42.016;23.098;2023-09-19T13:08:17;10.93;;;5.07;;
7336;SDS011;54510;42.016;23.098;2023-09-19T13:11:07;8.95;;;5.97;;
7336;SDS011;54510;42.016;23.098;2023-09-19T13:16:52;7.22;;;5.07;;
7336;SDS011;54510;42.016;23.098;2023-09-19T13:19:34;6.30;;;4.93;;
7336;SDS011;54510;42.016;23.098;2023-09-19T13:22:00;9.68;;;5.95;;
7336;SDS011;54510;42.016;23.098;2023-09-19T13:24:26;9.20;;;5.20;;
7336;SDS011;54510;42.016;23.098;2023-09-19T13:26:52;7.35;;;4.80;;
7336;SDS011;54510;42.016;23.098;2023-09-19T13:29:18;8.52;;;5.82;;
7336;SDS011;54510;42.016;23.098;2023-09-19T13:34:13;8.13;;;5.05;;
7336;SDS011;54510;42.016;23.098;2023-09-19T13:36:41;8.07;;;5.60;;
7336;SDS011;54510;42.016;23.098;2023-09-19T13:39:07;10.02;;;5.20;;
7336;SDS011;54510;42.016;23.098;2023-09-19T13:41:34;11.30;;;5.18;;
7336;SDS011;54510;42.016;23.098;2023-09-19T13:44:02;7.07;;;4.90;;
7336;SDS011;54510;42.016;23.098;2023-09-19T13:46:28;7.68;;;5.18;;
7336;SDS011;54510;42.016;23.098;2023-09-19T13:48:53;7.10;;;5.07;;
7336;SDS011;54510;42.016;23.098;2023-09-19T13:51:20;9.20;;;5.55;;
7336;SDS011;54510;42.016;23.098;2023-09-19T13:53:48;10.15;;;5.15;;
7336;SDS011;54510;42.016;23.098;2023-09-19T13:56:13;7.50;;;5.15;;
7336;SDS011;54510;42.016;23.098;2023-09-19T13:58:39;7.53;;;4.78;;
7336;SDS011;54510;42.016;23.098;2023-09-19T14:01:06;6.60;;;5.18;;
7336;SDS011;54510;42.016;23.098;2023-09-19T14:03:37;7.63;;;5.07;;
7336;SDS011;54510;42.016;23.098;2023-09-19T14:06:03;9.93;;;5.13;;
7336;SDS011;54510;42.016;23.098;2023-09-19T14:08:29;11.13;;;5.40;;
7336;SDS011;54510;42.016;23.098;2023-09-19T14:10:54;10.30;;;5.18;;
7336;SDS011;54510;42.016;23.098;2023-09-19T14:13:19;7.45;;;4.90;;
7336;SDS011;54510;42.016;23.098;2023-09-19T14:15:45;9.70;;;5.20;;
7336;SDS011;54510;42.016;23.098;2023-09-19T14:18:11;8.82;;;5.95;;
7336;SDS011;54510;42.016;23.098;2023-09-19T14:20:39;10.65;;;5.85;;
7336;SDS011;54510;42.016;23.098;2023-09-19T14:23:06;10.48;;;6.10;;
7336;SDS011;54510;42.016;23.098;2023-09-19T14:25:33;7.90;;;5.78;;
7336;SDS011;54510;42.016;23.098;2023-09-19T14:27:59;6.47;;;4.85;;
7336;SDS011;54510;42.016;23.098;2023-09-19T14:30:25;11.50;;;10.07;;
7336;SDS011;54510;42.016;23.098;2023-09-19T14:32:50;8.85;;;7.10;;
7336;SDS011;54510;42.016;23.098;2023-09-19T14:35:16;8.73;;;6.38;;
7336;SDS011;54510;42.016;23.098;2023-09-19T14:37:42;7.47;;;5.63;;
7336;SDS011;54510;42.016;23.098;2023-09-19T14:40:08;5.80;;;4.97;;
7336;SDS011;54510;42.016;23.098;2023-09-19T14:42:38;6.55;;;5.03;;
7336;SDS011;54510;42.016;23.098;2023-09-19T14:45:05;11.10;;;6.00;;
7336;SDS011;54510;42.016;23.098;2023-09-19T14:47:31;8.20;;;5.53;;
7336;SDS011;54510;42.016;23.098;2023-09-19T14:49:59;8.38;;;5.70;;
7336;SDS011;54510;42.016;23.098;2023-09-19T14:52:25;10.32;;;6.43;;
7336;SDS011;54510;42.016;23.098;2023-09-19T14:54:53;7.90;;;5.60;;
7336;SDS011;54510;42.016;23.098;2023-09-19T14:57:20;8.75;;;6.03;;
7336;SDS011;54510;42.016;23.098;2023-09-19T14:59:49;10.93;;;6.38;;
7336;SDS011;54510;42.016;23.098;2023-09-19T15:02:14;12.75;;;5.85;;
7336;SDS011;54510;42.016;23.098;2023-09-19T15:04:41;7.35;;;5.57;;
7336;SDS011;54510;42.016;23.098;2023-09-19T15:07:09;10.48;;;6.95;;
7336;SDS011;54510;42.016;23.098;2023-09-19T15:09:35;8.18;;;5.93;;
7336;SDS011;54510;42.016;23.098;2023-09-19T15:12:01;9.43;;;5.60;;
7336;SDS011;54510;42.016;23.098;2023-09-19T15:14:27;9.75;;;5.82;;
7336;SDS011;54510;42.016;23.098;2023-09-19T15:16:54;18.10;;;12.52;;
7336;SDS011;54510;42.016;23.098;2023-09-19T15:19:20;11.05;;;7.05;;
7336;SDS011;54510;42.016;23.098;2023-09-19T15:21:47;7.47;;;5.28;;
7336;SDS011;54510;42.016;23.098;2023-09-19T15:24:13;7.72;;;5.80;;
7336;SDS011;54510;42.016;23.098;2023-09-19T15:26:39;9.05;;;6.72;;
7336;SDS011;54510;42.016;23.098;2023-09-19T15:29:05;10.00;;;7.03;;
7336;SDS011;54510;42.016;23.098;2023-09-19T15:31:31;10.55;;;6.57;;
7336;SDS011;54510;42.016;23.098;2023-09-19T15:33:57;7.40;;;5.38;;
7336;SDS011;54510;42.016;23.098;2023-09-19T15:36:22;9.57;;;6.03;;
7336;SDS011;54510;42.016;23.098;2023-09-19T15:41:31;11.82;;;6.40;;
7336;SDS011;54510;42.016;23.098;2023-09-19T15:44:04;10.70;;;6.85;;
7336;SDS011;54510;42.016;23.098;2023-09-19T15:46:35;8.02;;;6.53;;
7336;SDS011;54510;42.016;23.098;2023-09-19T15:49:02;11.95;;;6.13;;
7336;SDS011;54510;42.016;23.098;2023-09-19T15:51:28;12.55;;;6.72;;
7336;SDS011;54510;42.016;23.098;2023-09-19T15:53:54;6.35;;;5.57;;
7336;SDS011;54510;42.016;23.098;2023-09-19T15:56:21;9.30;;;6.60;;